Palmer Municipal Airport Palmer US
ICAO: PAAQ
IATA:
Category: Medium
Scheduled Services:

Elevation: 242 ft
TransAlt. 18000 ft.

Airport Communications:
ANCHORAGE CNTR:118.6
ASOS:134.75
CTAF:123.6
RDO:123.6
KENAI RDO:123.6

PAAQ Zoom In..

If you have problems with the map follow the link
https://www.worldairports.se/pages/airport.php?
ICAO=PAAQ

Runways:

(A) RW 09 length 3617 ft width 75 ft
---- / hdg 93

(B) RW 16 length 6009 ft width 100 ft
---- / hdg 160

(C) RW 27 length 3617 ft width 75 ft
---- / hdg 273

(D) RW 34 length 6009 ft width 100 ft
---- / hdg 340

Location; PAAQ
Day. 16 / Time. 10.53 Zulu
* Altimeter: 30.17
* Temperature: -01° c. -30.2°f.
* Wind from: 360° Speed 16 kn with Gusts up to 24 kn.
Dewpoint: -09° c.
Visibility: 10 Statute Miles.
Clouds: Clear (automated report).

PAAQ 161053Z AUTO 36016G24KT 10SM CLR M01/M09 A3017 RMK AO2 SLP221 T10061094 TSNO


Wind From 360°
Speed 16 kn.

 
 
jpsmedia.com for Web Design worldairports.se 2018   terms of use